sensor_id;sensor_type;location;lat;lon;timestamp;P1;durP1;ratioP1;P2;durP2;ratioP2
60078;SDS011;45951;45.824;8.824;2023-12-29T00:00:38;12.02;;;8.45;;
60078;SDS011;45951;45.824;8.824;2023-12-29T00:02:19;11.93;;;9.32;;
60078;SDS011;45951;45.824;8.824;2023-12-29T00:04:00;9.13;;;6.70;;
60078;SDS011;45951;45.824;8.824;2023-12-29T00:05:40;9.70;;;6.88;;
60078;SDS011;45951;45.824;8.824;2023-12-29T00:07:21;10.45;;;6.38;;
60078;SDS011;45951;45.824;8.824;2023-12-29T00:09:01;15.73;;;10.52;;
60078;SDS011;45951;45.824;8.824;2023-12-29T00:10:42;11.63;;;7.55;;
60078;SDS011;45951;45.824;8.824;2023-12-29T00:12:23;10.40;;;7.05;;
60078;SDS011;45951;45.824;8.824;2023-12-29T00:14:03;9.60;;;7.63;;
60078;SDS011;45951;45.824;8.824;2023-12-29T00:15:44;12.63;;;9.38;;
60078;SDS011;45951;45.824;8.824;2023-12-29T00:17:26;9.40;;;7.20;;
60078;SDS011;45951;45.824;8.824;2023-12-29T00:19:07;9.82;;;7.22;;
60078;SDS011;45951;45.824;8.824;2023-12-29T00:20:47;8.98;;;5.80;;
60078;SDS011;45951;45.824;8.824;2023-12-29T00:22:28;9.23;;;5.90;;
60078;SDS011;45951;45.824;8.824;2023-12-29T00:24:08;7.47;;;4.93;;
60078;SDS011;45951;45.824;8.824;2023-12-29T00:25:49;8.52;;;5.55;;
60078;SDS011;45951;45.824;8.824;2023-12-29T00:27:29;7.30;;;5.22;;
60078;SDS011;45951;45.824;8.824;2023-12-29T00:29:09;7.88;;;5.18;;
60078;SDS011;45951;45.824;8.824;2023-12-29T00:30:50;6.95;;;4.65;;
60078;SDS011;45951;45.824;8.824;2023-12-29T00:32:30;8.18;;;4.70;;
60078;SDS011;45951;45.824;8.824;2023-12-29T00:34:10;7.60;;;4.45;;
60078;SDS011;45951;45.824;8.824;2023-12-29T00:35:50;7.30;;;4.38;;
60078;SDS011;45951;45.824;8.824;2023-12-29T00:37:31;7.55;;;4.28;;
60078;SDS011;45951;45.824;8.824;2023-12-29T00:39:11;7.13;;;4.90;;
60078;SDS011;45951;45.824;8.824;2023-12-29T00:40:52;7.43;;;4.88;;
60078;SDS011;45951;45.824;8.824;2023-12-29T00:42:32;6.35;;;4.50;;
60078;SDS011;45951;45.824;8.824;2023-12-29T00:44:13;7.10;;;4.53;;
60078;SDS011;45951;45.824;8.824;2023-12-29T00:45:53;9.43;;;4.88;;
60078;SDS011;45951;45.824;8.824;2023-12-29T00:47:33;7.47;;;4.75;;
60078;SDS011;45951;45.824;8.824;2023-12-29T00:49:14;6.72;;;4.68;;
60078;SDS011;45951;45.824;8.824;2023-12-29T00:50:54;8.05;;;4.95;;
60078;SDS011;45951;45.824;8.824;2023-12-29T00:52:34;7.30;;;4.85;;
60078;SDS011;45951;45.824;8.824;2023-12-29T00:54:16;8.00;;;4.80;;
60078;SDS011;45951;45.824;8.824;2023-12-29T00:55:56;7.40;;;4.47;;
60078;SDS011;45951;45.824;8.824;2023-12-29T00:57:37;8.30;;;5.35;;
60078;SDS011;45951;45.824;8.824;2023-12-29T00:59:18;9.73;;;5.05;;
60078;SDS011;45951;45.824;8.824;2023-12-29T01:00:59;9.05;;;5.80;;
60078;SDS011;45951;45.824;8.824;2023-12-29T01:02:43;10.68;;;6.68;;
60078;SDS011;45951;45.824;8.824;2023-12-29T01:04:23;11.23;;;8.73;;
60078;SDS011;45951;45.824;8.824;2023-12-29T01:06:03;12.40;;;8.73;;
60078;SDS011;45951;45.824;8.824;2023-12-29T01:07:44;14.07;;;9.13;;
60078;SDS011;45951;45.824;8.824;2023-12-29T01:09:26;13.63;;;9.15;;
60078;SDS011;45951;45.824;8.824;2023-12-29T01:11:06;11.73;;;8.82;;
60078;SDS011;45951;45.824;8.824;2023-12-29T01:12:46;12.05;;;8.35;;
60078;SDS011;45951;45.824;8.824;2023-12-29T01:14:27;12.80;;;8.65;;
60078;SDS011;45951;45.824;8.824;2023-12-29T01:16:08;11.07;;;7.78;;
60078;SDS011;45951;45.824;8.824;2023-12-29T01:17:48;9.98;;;6.20;;
60078;SDS011;45951;45.824;8.824;2023-12-29T01:19:28;6.63;;;3.42;;
60078;SDS011;45951;45.824;8.824;2023-12-29T01:21:09;6.45;;;3.70;;
60078;SDS011;45951;45.824;8.824;2023-12-29T01:22:49;6.70;;;4.40;;
60078;SDS011;45951;45.824;8.824;2023-12-29T01:24:29;6.57;;;4.18;;
60078;SDS011;45951;45.824;8.824;2023-12-29T01:26:10;6.53;;;3.63;;
60078;SDS011;45951;45.824;8.824;2023-12-29T01:27:50;6.10;;;3.65;;
60078;SDS011;45951;45.824;8.824;2023-12-29T01:29:31;5.28;;;3.45;;
60078;SDS011;45951;45.824;8.824;2023-12-29T01:31:11;6.18;;;3.22;;
60078;SDS011;45951;45.824;8.824;2023-12-29T01:32:53;4.90;;;3.13;;
60078;SDS011;45951;45.824;8.824;2023-12-29T01:34:34;6.35;;;3.67;;
60078;SDS011;45951;45.824;8.824;2023-12-29T01:36:17;6.10;;;3.30;;
60078;SDS011;45951;45.824;8.824;2023-12-29T01:37:59;6.32;;;3.22;;
60078;SDS011;45951;45.824;8.824;2023-12-29T01:39:40;5.57;;;3.05;;
60078;SDS011;45951;45.824;8.824;2023-12-29T01:41:21;6.07;;;3.28;;
60078;SDS011;45951;45.824;8.824;2023-12-29T01:43:02;5.32;;;3.03;;
60078;SDS011;45951;45.824;8.824;2023-12-29T01:44:43;4.53;;;2.95;;
60078;SDS011;45951;45.824;8.824;2023-12-29T01:46:25;5.70;;;3.45;;
60078;SDS011;45951;45.824;8.824;2023-12-29T01:48:06;5.30;;;3.30;;
60078;SDS011;45951;45.824;8.824;2023-12-29T01:49:47;5.15;;;3.28;;
60078;SDS011;45951;45.824;8.824;2023-12-29T01:51:28;5.88;;;3.55;;
60078;SDS011;45951;45.824;8.824;2023-12-29T01:53:09;7.30;;;3.58;;
60078;SDS011;45951;45.824;8.824;2023-12-29T01:54:50;4.70;;;3.08;;
60078;SDS011;45951;45.824;8.824;2023-12-29T01:56:32;4.97;;;3.03;;
60078;SDS011;45951;45.824;8.824;2023-12-29T01:58:12;5.45;;;2.97;;
60078;SDS011;45951;45.824;8.824;2023-12-29T01:59:53;5.75;;;3.60;;
60078;SDS011;45951;45.824;8.824;2023-12-29T02:01:34;6.50;;;3.38;;
60078;SDS011;45951;45.824;8.824;2023-12-29T02:03:16;6.00;;;3.10;;
60078;SDS011;45951;45.824;8.824;2023-12-29T02:04:56;5.22;;;3.20;;
60078;SDS011;45951;45.824;8.824;2023-12-29T02:06:38;4.97;;;3.35;;
60078;SDS011;45951;45.824;8.824;2023-12-29T02:08:19;5.32;;;3.20;;
60078;SDS011;45951;45.824;8.824;2023-12-29T02:09:59;4.57;;;2.80;;
60078;SDS011;45951;45.824;8.824;2023-12-29T02:11:40;5.40;;;3.33;;
60078;SDS011;45951;45.824;8.824;2023-12-29T02:13:21;5.32;;;3.35;;
60078;SDS011;45951;45.824;8.824;2023-12-29T02:15:03;4.53;;;3.10;;
60078;SDS011;45951;45.824;8.824;2023-12-29T02:16:50;6.85;;;3.13;;
60078;SDS011;45951;45.824;8.824;2023-12-29T02:18:36;5.60;;;3.17;;
60078;SDS011;45951;45.824;8.824;2023-12-29T02:20:17;6.00;;;3.60;;
60078;SDS011;45951;45.824;8.824;2023-12-29T02:21:57;6.20;;;3.33;;
60078;SDS011;45951;45.824;8.824;2023-12-29T02:23:38;5.97;;;3.20;;
60078;SDS011;45951;45.824;8.824;2023-12-29T02:25:18;5.97;;;3.20;;
60078;SDS011;45951;45.824;8.824;2023-12-29T02:27:07;5.15;;;3.20;;
60078;SDS011;45951;45.824;8.824;2023-12-29T02:28:53;4.68;;;3.10;;
60078;SDS011;45951;45.824;8.824;2023-12-29T02:30:41;5.20;;;2.95;;
60078;SDS011;45951;45.824;8.824;2023-12-29T02:32:25;5.75;;;3.13;;
60078;SDS011;45951;45.824;8.824;2023-12-29T02:34:06;4.35;;;2.83;;
60078;SDS011;45951;45.824;8.824;2023-12-29T02:35:48;4.60;;;3.00;;
60078;SDS011;45951;45.824;8.824;2023-12-29T02:37:31;6.20;;;3.00;;
60078;SDS011;45951;45.824;8.824;2023-12-29T02:39:12;5.50;;;2.80;;
60078;SDS011;45951;45.824;8.824;2023-12-29T02:40:52;4.65;;;2.83;;
60078;SDS011;45951;45.824;8.824;2023-12-29T02:42:32;5.30;;;3.00;;
60078;SDS011;45951;45.824;8.824;2023-12-29T02:44:13;5.28;;;3.00;;
60078;SDS011;45951;45.824;8.824;2023-12-29T02:45:53;5.07;;;2.80;;
60078;SDS011;45951;45.824;8.824;2023-12-29T02:47:33;5.13;;;2.90;;
60078;SDS011;45951;45.824;8.824;2023-12-29T02:49:14;4.43;;;3.03;;
60078;SDS011;45951;45.824;8.824;2023-12-29T02:50:54;5.10;;;2.75;;
60078;SDS011;45951;45.824;8.824;2023-12-29T02:52:34;5.15;;;3.10;;
60078;SDS011;45951;45.824;8.824;2023-12-29T02:54:15;5.47;;;3.35;;
60078;SDS011;45951;45.824;8.824;2023-12-29T02:55:55;6.38;;;3.40;;
60078;SDS011;45951;45.824;8.824;2023-12-29T02:57:36;5.30;;;3.10;;
60078;SDS011;45951;45.824;8.824;2023-12-29T02:59:16;6.05;;;3.15;;
60078;SDS011;45951;45.824;8.824;2023-12-29T03:00:56;9.23;;;3.45;;
60078;SDS011;45951;45.824;8.824;2023-12-29T03:02:36;7.07;;;4.65;;
60078;SDS011;45951;45.824;8.824;2023-12-29T03:04:17;9.20;;;5.40;;
60078;SDS011;45951;45.824;8.824;2023-12-29T03:05:57;7.93;;;5.63;;
60078;SDS011;45951;45.824;8.824;2023-12-29T03:07:37;7.85;;;5.30;;
60078;SDS011;45951;45.824;8.824;2023-12-29T03:09:19;8.85;;;5.45;;
60078;SDS011;45951;45.824;8.824;2023-12-29T03:10:59;6.75;;;4.53;;
60078;SDS011;45951;45.824;8.824;2023-12-29T03:12:40;7.05;;;4.70;;
60078;SDS011;45951;45.824;8.824;2023-12-29T03:14:20;6.53;;;3.75;;
60078;SDS011;45951;45.824;8.824;2023-12-29T03:16:01;6.13;;;3.60;;
60078;SDS011;45951;45.824;8.824;2023-12-29T03:17:41;8.27;;;4.20;;
60078;SDS011;45951;45.824;8.824;2023-12-29T03:19:21;6.57;;;3.92;;
60078;SDS011;45951;45.824;8.824;2023-12-29T03:21:02;8.85;;;5.68;;
60078;SDS011;45951;45.824;8.824;2023-12-29T03:22:42;12.95;;;8.93;;
60078;SDS011;45951;45.824;8.824;2023-12-29T03:24:22;13.88;;;11.05;;
60078;SDS011;45951;45.824;8.824;2023-12-29T03:26:03;15.13;;;10.80;;
60078;SDS011;45951;45.824;8.824;2023-12-29T03:27:43;13.70;;;10.57;;
60078;SDS011;45951;45.824;8.824;2023-12-29T03:29:23;12.73;;;9.88;;
60078;SDS011;45951;45.824;8.824;2023-12-29T03:31:04;12.35;;;9.60;;
60078;SDS011;45951;45.824;8.824;2023-12-29T03:32:45;13.70;;;10.88;;
60078;SDS011;45951;45.824;8.824;2023-12-29T03:34:25;17.90;;;13.73;;
60078;SDS011;45951;45.824;8.824;2023-12-29T03:36:06;17.17;;;12.55;;
60078;SDS011;45951;45.824;8.824;2023-12-29T03:37:47;16.17;;;12.30;;
60078;SDS011;45951;45.824;8.824;2023-12-29T03:39:27;17.58;;;13.20;;
60078;SDS011;45951;45.824;8.824;2023-12-29T03:41:09;17.77;;;13.88;;
60078;SDS011;45951;45.824;8.824;2023-12-29T03:42:50;16.73;;;13.57;;
60078;SDS011;45951;45.824;8.824;2023-12-29T03:44:30;16.73;;;14.07;;
60078;SDS011;45951;45.824;8.824;2023-12-29T03:46:20;17.98;;;13.77;;
60078;SDS011;45951;45.824;8.824;2023-12-29T03:48:01;18.90;;;14.40;;
60078;SDS011;45951;45.824;8.824;2023-12-29T03:49:41;21.83;;;14.65;;
60078;SDS011;45951;45.824;8.824;2023-12-29T03:51:22;17.40;;;12.95;;
60078;SDS011;45951;45.824;8.824;2023-12-29T03:53:02;19.17;;;13.65;;
60078;SDS011;45951;45.824;8.824;2023-12-29T03:54:43;15.88;;;12.80;;
60078;SDS011;45951;45.824;8.824;2023-12-29T03:56:23;18.13;;;14.07;;
60078;SDS011;45951;45.824;8.824;2023-12-29T03:58:03;19.02;;;14.80;;
60078;SDS011;45951;45.824;8.824;2023-12-29T03:59:44;19.48;;;13.60;;
60078;SDS011;45951;45.824;8.824;2023-12-29T04:01:24;17.25;;;13.90;;
60078;SDS011;45951;45.824;8.824;2023-12-29T04:03:05;16.52;;;13.55;;
60078;SDS011;45951;45.824;8.824;2023-12-29T04:04:45;19.25;;;13.60;;
60078;SDS011;45951;45.824;8.824;2023-12-29T04:06:25;16.73;;;13.57;;
60078;SDS011;45951;45.824;8.824;2023-12-29T04:08:06;17.52;;;14.23;;
60078;SDS011;45951;45.824;8.824;2023-12-29T04:09:46;17.73;;;13.50;;
60078;SDS011;45951;45.824;8.824;2023-12-29T04:11:26;18.27;;;13.85;;
60078;SDS011;45951;45.824;8.824;2023-12-29T04:13:07;20.38;;;14.13;;
60078;SDS011;45951;45.824;8.824;2023-12-29T04:14:47;17.15;;;13.73;;
60078;SDS011;45951;45.824;8.824;2023-12-29T04:16:27;17.15;;;13.30;;
60078;SDS011;45951;45.824;8.824;2023-12-29T04:18:07;16.95;;;13.25;;
60078;SDS011;45951;45.824;8.824;2023-12-29T04:19:48;17.42;;;13.40;;
60078;SDS011;45951;45.824;8.824;2023-12-29T04:21:28;17.10;;;13.27;;
60078;SDS011;45951;45.824;8.824;2023-12-29T04:23:08;17.38;;;12.60;;
60078;SDS011;45951;45.824;8.824;2023-12-29T04:24:49;16.80;;;13.30;;
60078;SDS011;45951;45.824;8.824;2023-12-29T04:26:29;16.90;;;13.35;;
60078;SDS011;45951;45.824;8.824;2023-12-29T04:28:09;15.45;;;12.80;;
60078;SDS011;45951;45.824;8.824;2023-12-29T04:29:50;17.35;;;13.93;;
60078;SDS011;45951;45.824;8.824;2023-12-29T04:31:30;17.40;;;13.43;;
60078;SDS011;45951;45.824;8.824;2023-12-29T04:33:10;16.92;;;12.77;;
60078;SDS011;45951;45.824;8.824;2023-12-29T04:34:51;17.67;;;13.10;;
60078;SDS011;45951;45.824;8.824;2023-12-29T04:36:31;16.48;;;12.85;;
60078;SDS011;45951;45.824;8.824;2023-12-29T04:38:11;16.60;;;13.35;;
60078;SDS011;45951;45.824;8.824;2023-12-29T04:39:52;17.02;;;12.90;;
60078;SDS011;45951;45.824;8.824;2023-12-29T04:41:33;17.25;;;13.00;;
60078;SDS011;45951;45.824;8.824;2023-12-29T04:43:13;19.15;;;13.02;;
60078;SDS011;45951;45.824;8.824;2023-12-29T04:44:53;17.38;;;12.93;;
60078;SDS011;45951;45.824;8.824;2023-12-29T04:46:34;17.27;;;13.13;;
60078;SDS011;45951;45.824;8.824;2023-12-29T04:48:14;16.10;;;12.65;;
60078;SDS011;45951;45.824;8.824;2023-12-29T04:49:54;17.23;;;12.52;;
60078;SDS011;45951;45.824;8.824;2023-12-29T04:51:35;14.68;;;11.98;;
60078;SDS011;45951;45.824;8.824;2023-12-29T04:53:15;17.77;;;12.48;;
60078;SDS011;45951;45.824;8.824;2023-12-29T04:54:56;16.30;;;12.10;;
60078;SDS011;45951;45.824;8.824;2023-12-29T04:56:36;16.67;;;12.32;;
60078;SDS011;45951;45.824;8.824;2023-12-29T04:58:16;16.65;;;11.52;;
60078;SDS011;45951;45.824;8.824;2023-12-29T04:59:57;14.32;;;11.20;;
60078;SDS011;45951;45.824;8.824;2023-12-29T05:01:37;14.95;;;11.10;;
60078;SDS011;45951;45.824;8.824;2023-12-29T05:03:17;14.70;;;11.00;;
60078;SDS011;45951;45.824;8.824;2023-12-29T05:04:58;13.15;;;10.77;;
60078;SDS011;45951;45.824;8.824;2023-12-29T05:06:38;13.23;;;9.73;;
60078;SDS011;45951;45.824;8.824;2023-12-29T05:08:18;13.50;;;9.30;;
60078;SDS011;45951;45.824;8.824;2023-12-29T05:09:59;12.63;;;8.98;;
60078;SDS011;45951;45.824;8.824;2023-12-29T05:11:39;13.38;;;10.05;;
60078;SDS011;45951;45.824;8.824;2023-12-29T05:13:20;11.05;;;7.70;;
60078;SDS011;45951;45.824;8.824;2023-12-29T05:15:00;12.55;;;8.63;;
60078;SDS011;45951;45.824;8.824;2023-12-29T05:16:43;12.68;;;9.07;;
60078;SDS011;45951;45.824;8.824;2023-12-29T05:18:24;11.77;;;8.55;;
60078;SDS011;45951;45.824;8.824;2023-12-29T05:20:07;13.95;;;9.13;;
60078;SDS011;45951;45.824;8.824;2023-12-29T05:21:48;11.68;;;8.43;;
60078;SDS011;45951;45.824;8.824;2023-12-29T05:23:31;12.68;;;8.68;;
60078;SDS011;45951;45.824;8.824;2023-12-29T05:25:11;10.73;;;8.20;;
60078;SDS011;45951;45.824;8.824;2023-12-29T05:26:52;10.75;;;8.10;;
60078;SDS011;45951;45.824;8.824;2023-12-29T05:28:32;10.80;;;7.78;;
60078;SDS011;45951;45.824;8.824;2023-12-29T05:30:13;11.90;;;8.15;;
60078;SDS011;45951;45.824;8.824;2023-12-29T05:31:53;10.73;;;7.65;;
60078;SDS011;45951;45.824;8.824;2023-12-29T05:33:34;11.20;;;7.43;;
60078;SDS011;45951;45.824;8.824;2023-12-29T05:35:14;10.70;;;7.90;;
60078;SDS011;45951;45.824;8.824;2023-12-29T05:36:54;10.88;;;8.13;;
60078;SDS011;45951;45.824;8.824;2023-12-29T05:38:35;11.00;;;7.85;;
60078;SDS011;45951;45.824;8.824;2023-12-29T05:40:16;10.68;;;7.65;;
60078;SDS011;45951;45.824;8.824;2023-12-29T05:41:56;11.15;;;8.18;;
60078;SDS011;45951;45.824;8.824;2023-12-29T05:43:36;10.35;;;7.40;;
60078;SDS011;45951;45.824;8.824;2023-12-29T05:45:17;10.80;;;8.18;;
60078;SDS011;45951;45.824;8.824;2023-12-29T05:46:57;12.63;;;9.13;;
60078;SDS011;45951;45.824;8.824;2023-12-29T05:48:38;17.08;;;10.95;;
60078;SDS011;45951;45.824;8.824;2023-12-29T05:50:19;16.45;;;11.27;;
60078;SDS011;45951;45.824;8.824;2023-12-29T05:51:59;15.18;;;11.93;;
60078;SDS011;45951;45.824;8.824;2023-12-29T05:53:40;16.17;;;12.52;;
60078;SDS011;45951;45.824;8.824;2023-12-29T05:55:20;16.98;;;12.43;;
60078;SDS011;45951;45.824;8.824;2023-12-29T05:57:01;18.00;;;12.95;;
60078;SDS011;45951;45.824;8.824;2023-12-29T05:58:41;17.92;;;12.50;;
60078;SDS011;45951;45.824;8.824;2023-12-29T06:00:22;18.40;;;12.45;;
60078;SDS011;45951;45.824;8.824;2023-12-29T06:02:03;16.15;;;12.70;;
60078;SDS011;45951;45.824;8.824;2023-12-29T06:03:43;18.73;;;14.18;;
60078;SDS011;45951;45.824;8.824;2023-12-29T06:05:23;18.92;;;13.73;;
60078;SDS011;45951;45.824;8.824;2023-12-29T06:07:04;16.90;;;13.45;;
60078;SDS011;45951;45.824;8.824;2023-12-29T06:08:44;18.75;;;14.88;;
60078;SDS011;45951;45.824;8.824;2023-12-29T06:10:24;19.25;;;13.82;;
60078;SDS011;45951;45.824;8.824;2023-12-29T06:12:05;17.73;;;14.05;;
60078;SDS011;45951;45.824;8.824;2023-12-29T06:13:45;19.13;;;13.23;;
60078;SDS011;45951;45.824;8.824;2023-12-29T06:15:25;17.23;;;13.85;;
60078;SDS011;45951;45.824;8.824;2023-12-29T06:17:06;18.45;;;13.68;;
60078;SDS011;45951;45.824;8.824;2023-12-29T06:18:46;17.17;;;13.82;;
60078;SDS011;45951;45.824;8.824;2023-12-29T06:20:27;17.50;;;13.38;;
60078;SDS011;45951;45.824;8.824;2023-12-29T06:22:08;18.30;;;13.57;;
60078;SDS011;45951;45.824;8.824;2023-12-29T06:23:51;16.38;;;12.40;;
60078;SDS011;45951;45.824;8.824;2023-12-29T06:25:31;15.38;;;11.68;;
60078;SDS011;45951;45.824;8.824;2023-12-29T06:27:15;17.48;;;12.40;;
60078;SDS011;45951;45.824;8.824;2023-12-29T06:28:55;17.45;;;12.68;;
60078;SDS011;45951;45.824;8.824;2023-12-29T06:30:36;16.25;;;11.35;;
60078;SDS011;45951;45.824;8.824;2023-12-29T06:32:16;16.55;;;11.60;;
60078;SDS011;45951;45.824;8.824;2023-12-29T06:33:56;16.67;;;11.77;;
60078;SDS011;45951;45.824;8.824;2023-12-29T06:35:40;14.52;;;11.13;;
60078;SDS011;45951;45.824;8.824;2023-12-29T06:37:20;20.58;;;12.75;;
60078;SDS011;45951;45.824;8.824;2023-12-29T06:39:00;16.00;;;11.30;;
60078;SDS011;45951;45.824;8.824;2023-12-29T06:40:41;15.35;;;12.05;;
60078;SDS011;45951;45.824;8.824;2023-12-29T06:42:21;16.17;;;11.95;;
60078;SDS011;45951;45.824;8.824;2023-12-29T06:44:02;16.88;;;11.45;;
60078;SDS011;45951;45.824;8.824;2023-12-29T06:45:43;13.90;;;11.20;;
60078;SDS011;45951;45.824;8.824;2023-12-29T06:47:23;17.10;;;11.60;;
60078;SDS011;45951;45.824;8.824;2023-12-29T06:49:03;15.07;;;11.23;;
60078;SDS011;45951;45.824;8.824;2023-12-29T06:50:44;13.80;;;10.85;;
60078;SDS011;45951;45.824;8.824;2023-12-29T06:52:24;18.70;;;11.43;;
60078;SDS011;45951;45.824;8.824;2023-12-29T06:54:05;16.48;;;11.82;;
60078;SDS011;45951;45.824;8.824;2023-12-29T06:55:45;16.10;;;11.60;;
60078;SDS011;45951;45.824;8.824;2023-12-29T06:57:26;15.93;;;11.20;;
60078;SDS011;45951;45.824;8.824;2023-12-29T06:59:07;14.20;;;10.38;;
60078;SDS011;45951;45.824;8.824;2023-12-29T07:00:47;15.23;;;10.75;;
60078;SDS011;45951;45.824;8.824;2023-12-29T07:02:27;13.85;;;10.52;;
60078;SDS011;45951;45.824;8.824;2023-12-29T07:04:08;14.57;;;10.32;;
60078;SDS011;45951;45.824;8.824;2023-12-29T07:05:50;11.45;;;8.50;;
60078;SDS011;45951;45.824;8.824;2023-12-29T07:07:30;11.93;;;9.57;;
60078;SDS011;45951;45.824;8.824;2023-12-29T07:09:10;14.93;;;9.57;;
60078;SDS011;45951;45.824;8.824;2023-12-29T07:10:51;12.68;;;9.50;;
60078;SDS011;45951;45.824;8.824;2023-12-29T07:12:31;14.05;;;10.00;;
60078;SDS011;45951;45.824;8.824;2023-12-29T07:14:11;11.48;;;9.38;;
60078;SDS011;45951;45.824;8.824;2023-12-29T07:15:53;14.70;;;9.57;;
60078;SDS011;45951;45.824;8.824;2023-12-29T07:17:34;13.05;;;7.50;;
60078;SDS011;45951;45.824;8.824;2023-12-29T07:19:14;14.30;;;9.27;;
60078;SDS011;45951;45.824;8.824;2023-12-29T07:20:54;10.32;;;8.18;;
60078;SDS011;45951;45.824;8.824;2023-12-29T07:22:35;12.13;;;8.45;;
60078;SDS011;45951;45.824;8.824;2023-12-29T07:24:15;10.77;;;7.82;;
60078;SDS011;45951;45.824;8.824;2023-12-29T07:25:55;11.45;;;7.50;;
60078;SDS011;45951;45.824;8.824;2023-12-29T07:27:35;11.93;;;8.43;;
60078;SDS011;45951;45.824;8.824;2023-12-29T07:29:16;12.13;;;8.82;;
60078;SDS011;45951;45.824;8.824;2023-12-29T07:30:57;10.30;;;7.38;;
60078;SDS011;45951;45.824;8.824;2023-12-29T07:32:37;13.02;;;8.35;;
60078;SDS011;45951;45.824;8.824;2023-12-29T07:34:17;12.38;;;7.97;;
60078;SDS011;45951;45.824;8.824;2023-12-29T07:35:57;13.70;;;9.57;;
60078;SDS011;45951;45.824;8.824;2023-12-29T07:37:38;13.43;;;9.52;;
60078;SDS011;45951;45.824;8.824;2023-12-29T07:39:18;14.35;;;9.63;;
60078;SDS011;45951;45.824;8.824;2023-12-29T07:40:58;13.40;;;10.13;;
60078;SDS011;45951;45.824;8.824;2023-12-29T07:42:39;14.23;;;10.60;;
60078;SDS011;45951;45.824;8.824;2023-12-29T07:44:20;16.27;;;11.85;;
60078;SDS011;45951;45.824;8.824;2023-12-29T07:46:00;14.98;;;10.98;;
60078;SDS011;45951;45.824;8.824;2023-12-29T07:47:41;15.68;;;11.73;;
60078;SDS011;45951;45.824;8.824;2023-12-29T07:49:21;15.93;;;11.60;;
60078;SDS011;45951;45.824;8.824;2023-12-29T07:51:05;13.52;;;11.07;;
60078;SDS011;45951;45.824;8.824;2023-12-29T07:52:46;14.35;;;11.10;;
60078;SDS011;45951;45.824;8.824;2023-12-29T07:54:26;15.05;;;10.70;;
60078;SDS011;45951;45.824;8.824;2023-12-29T07:56:06;14.32;;;11.05;;
60078;SDS011;45951;45.824;8.824;2023-12-29T07:57:47;12.80;;;10.38;;
60078;SDS011;45951;45.824;8.824;2023-12-29T07:59:28;16.23;;;10.98;;
60078;SDS011;45951;45.824;8.824;2023-12-29T08:01:08;15.27;;;11.30;;
60078;SDS011;45951;45.824;8.824;2023-12-29T08:02:50;15.40;;;10.13;;
60078;SDS011;45951;45.824;8.824;2023-12-29T08:04:31;13.68;;;9.70;;
60078;SDS011;45951;45.824;8.824;2023-12-29T08:06:12;13.30;;;9.60;;
60078;SDS011;45951;45.824;8.824;2023-12-29T08:07:52;12.50;;;8.70;;
60078;SDS011;45951;45.824;8.824;2023-12-29T08:09:33;12.68;;;8.35;;
60078;SDS011;45951;45.824;8.824;2023-12-29T08:11:14;9.00;;;6.55;;
60078;SDS011;45951;45.824;8.824;2023-12-29T08:12:58;14.15;;;9.15;;
60078;SDS011;45951;45.824;8.824;2023-12-29T08:14:39;10.43;;;7.90;;
60078;SDS011;45951;45.824;8.824;2023-12-29T08:16:19;13.05;;;8.15;;
60078;SDS011;45951;45.824;8.824;2023-12-29T08:17:59;12.68;;;8.82;;
60078;SDS011;45951;45.824;8.824;2023-12-29T08:19:40;11.10;;;7.53;;
60078;SDS011;45951;45.824;8.824;2023-12-29T08:21:20;12.75;;;7.97;;
60078;SDS011;45951;45.824;8.824;2023-12-29T08:23:01;11.82;;;8.05;;
60078;SDS011;45951;45.824;8.824;2023-12-29T08:24:42;14.20;;;10.50;;
60078;SDS011;45951;45.824;8.824;2023-12-29T08:26:23;20.70;;;11.65;;
60078;SDS011;45951;45.824;8.824;2023-12-29T08:28:04;14.32;;;11.25;;
60078;SDS011;45951;45.824;8.824;2023-12-29T08:29:45;13.20;;;10.70;;
60078;SDS011;45951;45.824;8.824;2023-12-29T08:31:25;16.33;;;12.13;;
60078;SDS011;45951;45.824;8.824;2023-12-29T08:33:08;18.15;;;12.48;;
60078;SDS011;45951;45.824;8.824;2023-12-29T08:34:49;15.05;;;12.65;;
60078;SDS011;45951;45.824;8.824;2023-12-29T08:36:29;15.65;;;11.93;;
60078;SDS011;45951;45.824;8.824;2023-12-29T08:38:09;18.98;;;12.18;;
60078;SDS011;45951;45.824;8.824;2023-12-29T08:39:50;16.00;;;10.45;;
60078;SDS011;45951;45.824;8.824;2023-12-29T08:41:30;13.77;;;10.13;;
60078;SDS011;45951;45.824;8.824;2023-12-29T08:43:10;15.93;;;11.20;;
60078;SDS011;45951;45.824;8.824;2023-12-29T08:44:51;14.68;;;12.13;;
60078;SDS011;45951;45.824;8.824;2023-12-29T08:46:31;18.05;;;13.25;;
60078;SDS011;45951;45.824;8.824;2023-12-29T08:48:11;16.63;;;13.23;;
60078;SDS011;45951;45.824;8.824;2023-12-29T08:49:52;17.77;;;13.68;;
60078;SDS011;45951;45.824;8.824;2023-12-29T08:51:34;17.88;;;13.63;;
60078;SDS011;45951;45.824;8.824;2023-12-29T08:53:14;16.27;;;12.50;;
60078;SDS011;45951;45.824;8.824;2023-12-29T08:54:55;20.60;;;14.23;;
60078;SDS011;45951;45.824;8.824;2023-12-29T08:56:37;20.08;;;13.18;;
60078;SDS011;45951;45.824;8.824;2023-12-29T08:58:17;16.77;;;13.18;;
60078;SDS011;45951;45.824;8.824;2023-12-29T08:59:57;17.55;;;13.38;;
60078;SDS011;45951;45.824;8.824;2023-12-29T09:01:38;17.48;;;13.77;;
60078;SDS011;45951;45.824;8.824;2023-12-29T09:03:18;17.52;;;14.38;;
60078;SDS011;45951;45.824;8.824;2023-12-29T09:04:58;15.38;;;12.88;;
60078;SDS011;45951;45.824;8.824;2023-12-29T09:06:39;16.65;;;13.45;;
60078;SDS011;45951;45.824;8.824;2023-12-29T09:08:19;15.75;;;12.93;;
60078;SDS011;45951;45.824;8.824;2023-12-29T09:09:59;18.75;;;13.40;;
60078;SDS011;45951;45.824;8.824;2023-12-29T09:11:42;17.52;;;13.13;;
60078;SDS011;45951;45.824;8.824;2023-12-29T09:13:22;18.52;;;13.27;;
60078;SDS011;45951;45.824;8.824;2023-12-29T09:15:05;15.77;;;12.32;;
60078;SDS011;45951;45.824;8.824;2023-12-29T09:16:46;17.38;;;12.43;;
60078;SDS011;45951;45.824;8.824;2023-12-29T09:18:27;15.05;;;11.80;;
60078;SDS011;45951;45.824;8.824;2023-12-29T09:20:08;17.00;;;13.15;;
60078;SDS011;45951;45.824;8.824;2023-12-29T09:21:49;17.30;;;12.75;;
60078;SDS011;45951;45.824;8.824;2023-12-29T09:23:29;18.90;;;12.15;;
60078;SDS011;45951;45.824;8.824;2023-12-29T09:25:09;16.52;;;12.07;;
60078;SDS011;45951;45.824;8.824;2023-12-29T09:26:50;15.50;;;11.85;;
60078;SDS011;45951;45.824;8.824;2023-12-29T09:28:32;14.57;;;11.35;;
60078;SDS011;45951;45.824;8.824;2023-12-29T09:30:13;16.48;;;11.18;;
60078;SDS011;45951;45.824;8.824;2023-12-29T09:31:53;15.13;;;11.68;;
60078;SDS011;45951;45.824;8.824;2023-12-29T09:33:33;16.60;;;12.95;;
60078;SDS011;45951;45.824;8.824;2023-12-29T09:35:14;16.95;;;12.55;;
60078;SDS011;45951;45.824;8.824;2023-12-29T09:36:54;16.02;;;12.65;;
60078;SDS011;45951;45.824;8.824;2023-12-29T09:38:34;19.17;;;13.30;;
60078;SDS011;45951;45.824;8.824;2023-12-29T09:40:15;15.98;;;12.70;;
60078;SDS011;45951;45.824;8.824;2023-12-29T09:41:57;16.65;;;12.70;;
60078;SDS011;45951;45.824;8.824;2023-12-29T09:43:40;17.55;;;12.93;;
60078;SDS011;45951;45.824;8.824;2023-12-29T09:45:25;16.67;;;12.30;;
60078;SDS011;45951;45.824;8.824;2023-12-29T09:47:05;15.68;;;12.63;;
60078;SDS011;45951;45.824;8.824;2023-12-29T09:48:48;15.65;;;12.23;;
60078;SDS011;45951;45.824;8.824;2023-12-29T09:50:32;15.75;;;11.77;;
60078;SDS011;45951;45.824;8.824;2023-12-29T09:52:12;15.50;;;12.45;;
60078;SDS011;45951;45.824;8.824;2023-12-29T09:53:53;15.15;;;11.70;;
60078;SDS011;45951;45.824;8.824;2023-12-29T09:55:34;18.67;;;12.45;;